createdAt,value
2022-12-25T00:05:55.149Z,14.85
2022-12-25T00:08:22.053Z,15.59
2022-12-25T00:10:53.700Z,15.13
2022-12-25T00:13:24.110Z,14.15
2022-12-25T00:15:51.954Z,13.99
2022-12-25T00:18:18.520Z,13.68
2022-12-25T00:20:45.813Z,13.09
2022-12-25T00:23:12.932Z,12.89
2022-12-25T00:25:41.419Z,12.50
2022-12-25T00:28:10.270Z,12.81
2022-12-25T00:30:38.039Z,13.59
2022-12-25T00:33:07.844Z,14.59
2022-12-25T00:35:36.137Z,14.60
2022-12-25T00:38:03.262Z,14.73
2022-12-25T00:40:29.789Z,14.73
2022-12-25T00:42:56.348Z,14.65
2022-12-25T00:45:23.124Z,15.07
2022-12-25T00:47:50.182Z,15.16
2022-12-25T00:50:16.749Z,14.63
2022-12-25T00:52:43.733Z,13.74
2022-12-25T00:55:10.467Z,13.47
2022-12-25T00:57:37.433Z,13.00
2022-12-25T01:00:04.010Z,12.29
2022-12-25T01:02:31.061Z,12.06
2022-12-25T01:04:57.633Z,11.66
2022-12-25T01:07:24.260Z,11.03
2022-12-25T01:09:51.222Z,10.82
2022-12-25T01:12:18.163Z,10.64
2022-12-25T01:14:44.974Z,10.82
2022-12-25T01:17:11.813Z,10.73
2022-12-25T01:19:38.464Z,11.90
2022-12-25T01:22:05.682Z,12.11
2022-12-25T01:24:32.440Z,11.67
2022-12-25T01:26:59.406Z,11.21
2022-12-25T01:29:26.161Z,11.01
2022-12-25T01:31:53.707Z,11.60
2022-12-25T01:34:20.611Z,11.80
2022-12-25T01:36:47.559Z,11.82
2022-12-25T01:39:15.153Z,11.24
2022-12-25T01:41:41.691Z,9.62
2022-12-25T01:44:09.085Z,9.68
2022-12-25T01:46:36.561Z,9.16
2022-12-25T01:49:03.361Z,9.09
2022-12-25T01:51:30.284Z,8.80
2022-12-25T01:53:57.743Z,8.77
2022-12-25T01:56:24.293Z,8.94
2022-12-25T01:58:51.837Z,9.01
2022-12-25T02:01:19.260Z,9.02
2022-12-25T02:03:46.052Z,8.57
2022-12-25T02:06:12.994Z,8.75
2022-12-25T02:08:39.670Z,8.90
2022-12-25T02:11:07.231Z,8.13
2022-12-25T02:13:34.102Z,8.50
2022-12-25T02:19:04.639Z,8.42
2022-12-25T02:21:31.548Z,8.32
2022-12-25T02:23:58.336Z,8.50
2022-12-25T02:26:25.324Z,9.07
2022-12-25T02:28:52.431Z,8.49
2022-12-25T02:31:19.334Z,8.25
2022-12-25T02:33:47.189Z,8.13
2022-12-25T02:42:19.636Z,8.57
2022-12-25T02:44:46.198Z,8.58
2022-12-25T02:47:14.010Z,8.93
2022-12-25T02:49:41.026Z,9.16
2022-12-25T02:52:08.019Z,9.98
2022-12-25T02:54:35.846Z,10.11
2022-12-25T02:57:02.635Z,10.04
2022-12-25T02:59:31.795Z,10.29
2022-12-25T03:01:58.640Z,10.39
2022-12-25T03:04:25.523Z,10.34
2022-12-25T03:06:52.428Z,10.15
2022-12-25T03:09:21.275Z,10.10
2022-12-25T03:11:48.260Z,10.08
2022-12-25T03:14:17.132Z,10.17
2022-12-25T03:16:45.601Z,10.22
2022-12-25T03:19:12.608Z,11.22
2022-12-25T03:21:41.178Z,11.01
2022-12-25T03:26:37.383Z,11.91
2022-12-25T03:29:04.334Z,11.56
2022-12-25T03:31:31.625Z,12.44
2022-12-25T03:33:59.608Z,11.59
2022-12-25T03:36:27.029Z,11.35
2022-12-25T03:38:54.938Z,12.21
2022-12-25T03:41:23.605Z,12.32
2022-12-25T03:43:50.506Z,12.14
2022-12-25T03:46:17.961Z,11.57
2022-12-25T03:48:45.599Z,12.23
2022-12-25T03:51:14.035Z,11.22
2022-12-25T03:53:40.833Z,10.77
2022-12-25T03:56:07.744Z,9.81
2022-12-25T03:58:34.517Z,10.28
2022-12-25T04:01:01.516Z,10.19
2022-12-25T04:03:28.415Z,9.63
2022-12-25T04:05:55.387Z,9.69
2022-12-25T04:08:23.189Z,10.19
2022-12-25T04:10:54.936Z,10.76
2022-12-25T04:13:42.610Z,10.66
2022-12-25T04:16:30.100Z,11.45
2022-12-25T04:19:19.231Z,11.88
2022-12-25T04:21:56.941Z,11.05
2022-12-25T04:24:24.399Z,10.17
2022-12-25T04:26:51.345Z,10.13
2022-12-25T04:29:18.106Z,11.11
2022-12-25T04:31:44.967Z,10.65
2022-12-25T04:34:12.687Z,10.19
2022-12-25T04:36:39.559Z,10.03
2022-12-25T04:41:58.890Z,9.37
2022-12-25T04:44:26.552Z,8.92
2022-12-25T04:46:53.469Z,8.85
2022-12-25T04:49:20.145Z,8.35
2022-12-25T04:51:47.208Z,8.27
2022-12-25T04:54:13.897Z,8.51
2022-12-25T04:56:46.020Z,7.85
2022-12-25T05:02:22.936Z,6.64
2022-12-25T05:04:50.826Z,6.58
2022-12-25T05:07:21.776Z,7.00
2022-12-25T05:09:49.500Z,6.82
2022-12-25T05:12:17.285Z,7.14
2022-12-25T05:17:53.648Z,7.82
2022-12-25T05:20:21.095Z,7.41
2022-12-25T05:22:47.609Z,6.71
2022-12-25T05:25:15.103Z,7.39
2022-12-25T05:27:41.830Z,7.04
2022-12-25T05:30:08.370Z,6.37
2022-12-25T05:32:35.422Z,6.42
2022-12-25T05:35:02.167Z,6.54
2022-12-25T05:37:29.171Z,5.92
2022-12-25T05:39:56.049Z,6.64
2022-12-25T05:42:22.993Z,6.21
2022-12-25T05:44:49.719Z,6.18
2022-12-25T05:47:16.381Z,5.93
2022-12-25T05:49:43.860Z,6.23
2022-12-25T05:52:10.834Z,6.29
2022-12-25T05:54:38.490Z,6.30
2022-12-25T05:57:05.703Z,6.24
2022-12-25T05:59:32.298Z,5.91
2022-12-25T06:02:01.065Z,5.84
2022-12-25T06:04:28.255Z,6.43
2022-12-25T06:06:57.178Z,7.29
2022-12-25T06:12:39.910Z,5.80
2022-12-25T06:15:10.275Z,5.57
2022-12-25T06:17:37.031Z,5.65
2022-12-25T06:20:04.026Z,5.47
2022-12-25T06:22:31.009Z,6.20
2022-12-25T06:24:58.052Z,6.34
2022-12-25T06:27:24.755Z,5.82
2022-12-25T06:29:51.657Z,5.59
2022-12-25T06:32:22.036Z,6.00
2022-12-25T06:34:48.861Z,5.95
2022-12-25T06:40:25.101Z,6.29
2022-12-25T06:42:51.712Z,6.10
2022-12-25T06:45:18.456Z,6.50
2022-12-25T06:47:45.139Z,6.02
2022-12-25T06:50:12.409Z,7.40
2022-12-25T06:52:39.106Z,6.39
2022-12-25T06:55:06.356Z,6.41
2022-12-25T06:57:33.804Z,6.62
2022-12-25T07:00:00.747Z,6.20
2022-12-25T07:02:29.375Z,5.88
2022-12-25T07:04:59.274Z,5.59
2022-12-25T07:07:25.885Z,5.54
2022-12-25T07:09:52.834Z,5.25
2022-12-25T07:12:19.641Z,5.63
2022-12-25T07:14:46.374Z,5.68
2022-12-25T07:20:22.140Z,5.99
2022-12-25T07:22:49.228Z,6.27
2022-12-25T07:25:16.053Z,6.69
2022-12-25T07:27:43.086Z,7.06
2022-12-25T07:30:13.112Z,8.43
2022-12-25T07:32:40.961Z,8.87
2022-12-25T07:38:25.290Z,8.08
2022-12-25T07:40:52.288Z,8.09
2022-12-25T07:43:19.240Z,8.10
2022-12-25T07:45:49.578Z,8.54
2022-12-25T07:48:17.205Z,9.20
2022-12-25T07:50:44.265Z,9.85
2022-12-25T07:53:13.470Z,9.99
2022-12-25T07:55:40.149Z,9.59
2022-12-25T07:58:07.104Z,9.83
2022-12-25T08:00:34.386Z,8.98
2022-12-25T08:03:01.448Z,9.60
2022-12-25T08:05:30.831Z,9.60
2022-12-25T08:08:00.832Z,9.16
2022-12-25T08:10:29.252Z,9.42
2022-12-25T08:12:56.208Z,9.65
2022-12-25T08:15:29.922Z,9.66
2022-12-25T08:17:56.741Z,9.69
2022-12-25T08:20:23.723Z,9.60
2022-12-25T08:22:51.236Z,9.88
2022-12-25T08:25:18.180Z,10.27
2022-12-25T08:27:45.679Z,10.12
2022-12-25T08:30:12.571Z,9.68
2022-12-25T08:32:42.290Z,9.83
2022-12-25T08:35:09.671Z,8.99
2022-12-25T08:37:39.491Z,8.69
2022-12-25T08:40:07.695Z,9.51
2022-12-25T08:42:34.565Z,10.51
2022-12-25T08:45:01.548Z,9.86
2022-12-25T08:47:28.357Z,9.52
2022-12-25T08:49:56.671Z,9.18
2022-12-25T08:52:23.824Z,10.44
2022-12-25T08:54:50.680Z,10.32
2022-12-25T08:57:17.625Z,10.54
2022-12-25T09:02:54.313Z,10.33
2022-12-25T09:05:24.134Z,9.84
2022-12-25T09:07:55.481Z,10.22
2022-12-25T09:10:22.582Z,10.33
2022-12-25T09:12:50.349Z,10.53
2022-12-25T09:15:17.328Z,10.75
2022-12-25T09:17:45.840Z,10.15
2022-12-25T09:20:14.894Z,10.31
2022-12-25T09:22:43.856Z,10.48
2022-12-25T09:25:11.873Z,10.21
2022-12-25T09:27:40.989Z,10.17
2022-12-25T09:30:10.608Z,10.59
2022-12-25T09:32:37.354Z,10.49
2022-12-25T09:35:03.964Z,10.91
2022-12-25T09:40:18.041Z,10.44
2022-12-25T09:42:44.748Z,10.72
2022-12-25T09:45:12.222Z,10.52
2022-12-25T09:47:39.194Z,10.28
2022-12-25T09:50:08.255Z,10.35
2022-12-25T09:52:34.854Z,10.87
2022-12-25T09:55:05.113Z,11.29
2022-12-25T09:57:33.700Z,10.52
2022-12-25T10:03:00.419Z,10.68
2022-12-25T10:11:37.222Z,10.63
2022-12-25T10:14:15.792Z,11.17
2022-12-25T10:16:49.582Z,11.89
2022-12-25T10:19:17.079Z,12.84
2022-12-25T10:21:47.710Z,14.42
2022-12-25T10:24:26.877Z,14.88
2022-12-25T10:29:48.801Z,14.51
2022-12-25T10:32:28.935Z,14.24
2022-12-25T10:34:59.262Z,14.17
2022-12-25T10:37:35.257Z,14.23
2022-12-25T10:40:13.257Z,14.46
2022-12-25T10:42:44.075Z,13.88
2022-12-25T10:45:17.763Z,14.30
2022-12-25T10:48:18.898Z,14.67
2022-12-25T10:50:46.063Z,14.40
2022-12-25T10:53:15.203Z,16.38
2022-12-25T10:55:53.521Z,13.79
2022-12-25T10:58:21.243Z,12.83
2022-12-25T11:01:04.310Z,13.03
2022-12-25T11:03:48.589Z,13.85
2022-12-25T11:06:23.188Z,13.17
2022-12-25T11:08:56.825Z,13.48
2022-12-25T11:11:40.664Z,12.03
2022-12-25T11:14:12.050Z,12.61
2022-12-25T11:16:41.407Z,11.89
2022-12-25T11:19:21.026Z,10.89
2022-12-25T11:21:49.859Z,10.73
2022-12-25T11:25:55.400Z,11.96
2022-12-25T11:27:19.730Z,11.03
2022-12-25T11:30:14.269Z,10.57
2022-12-25T11:32:49.031Z,11.28
2022-12-25T11:35:18.320Z,10.66
2022-12-25T11:37:48.444Z,10.22
2022-12-25T11:40:25.046Z,11.90
2022-12-25T11:42:52.945Z,11.40
2022-12-25T11:48:07.187Z,10.26
2022-12-25T11:50:34.019Z,10.54
2022-12-25T11:53:29.825Z,11.21
2022-12-25T11:55:59.513Z,10.45
2022-12-25T12:04:42.642Z,9.98
2022-12-25T12:07:15.709Z,12.31
2022-12-25T12:09:50.946Z,11.91
2022-12-25T12:12:27.604Z,12.39
2022-12-25T12:17:59.733Z,13.41
2022-12-25T12:20:29.701Z,15.27
2022-12-25T12:25:50.660Z,11.70
2022-12-25T12:28:22.841Z,11.33
2022-12-25T12:30:52.840Z,12.16
2022-12-25T12:33:39.206Z,12.43
2022-12-25T12:36:06.478Z,11.42
2022-12-25T12:41:50.636Z,10.39
2022-12-25T12:47:18.036Z,10.11
2022-12-25T12:49:53.556Z,10.45
2022-12-25T12:52:45.779Z,12.74
2022-12-25T12:58:06.511Z,14.03
2022-12-25T13:00:49.094Z,14.73
2022-12-25T13:03:17.329Z,14.16
2022-12-25T13:06:14.982Z,14.95
2022-12-25T13:09:17.682Z,14.72
2022-12-25T13:14:35.315Z,14.30
2022-12-25T13:17:06.155Z,14.16
2022-12-25T13:22:57.889Z,14.39
2022-12-25T13:34:09.759Z,14.81
2022-12-25T13:37:28.531Z,15.59
2022-12-25T13:39:41.737Z,15.84
2022-12-25T13:42:11.151Z,16.06
2022-12-25T13:47:26.608Z,17.91
2022-12-25T13:56:14.023Z,17.61
2022-12-25T14:01:31.794Z,15.77
2022-12-25T14:03:58.676Z,16.13
2022-12-25T14:06:25.216Z,15.62
2022-12-25T14:08:51.861Z,15.63
2022-12-25T14:11:26.000Z,15.43
2022-12-25T14:14:06.295Z,16.62
2022-12-25T14:16:39.965Z,15.46
2022-12-25T14:25:34.752Z,16.06
2022-12-25T14:30:45.679Z,15.02
2022-12-25T14:36:03.327Z,14.96
2022-12-25T14:38:50.790Z,15.70
2022-12-25T14:41:26.324Z,16.36
2022-12-25T14:47:41.418Z,15.93
2022-12-25T14:50:14.149Z,16.17
2022-12-25T14:52:46.711Z,16.42
2022-12-25T14:58:02.483Z,16.66
2022-12-25T15:03:16.469Z,16.42
2022-12-25T15:08:34.556Z,15.98
2022-12-25T15:11:04.060Z,16.67
2022-12-25T15:13:38.114Z,16.72
2022-12-25T15:16:08.099Z,17.73
2022-12-25T15:18:38.335Z,18.20
2022-12-25T15:23:55.053Z,18.10
2022-12-25T15:32:32.169Z,18.73
2022-12-25T15:35:08.126Z,18.24
2022-12-25T15:37:37.924Z,16.86
2022-12-25T15:40:10.608Z,16.45
2022-12-25T15:42:47.484Z,16.42
2022-12-25T15:45:37.587Z,15.81
2022-12-25T15:48:18.228Z,17.31
2022-12-25T15:50:48.300Z,16.84
2022-12-25T15:53:17.388Z,15.82
2022-12-25T15:56:08.161Z,16.44
2022-12-25T16:01:42.041Z,15.88
2022-12-25T16:04:14.580Z,16.09
2022-12-25T16:06:50.821Z,16.45
2022-12-25T16:09:20.052Z,16.31
2022-12-25T16:11:49.160Z,15.51
2022-12-25T16:14:17.343Z,16.46
2022-12-25T16:16:49.759Z,16.83
2022-12-25T16:19:19.231Z,16.31
2022-12-25T16:40:16.184Z,18.93
2022-12-25T16:42:43.959Z,18.40
2022-12-25T16:45:11.164Z,19.04
2022-12-25T16:47:38.131Z,19.00
2022-12-25T16:50:05.065Z,19.17
2022-12-25T16:52:31.634Z,19.01
2022-12-25T16:55:00.116Z,19.63
2022-12-25T16:57:27.945Z,18.50
2022-12-25T16:59:54.793Z,18.19
2022-12-25T17:05:09.512Z,19.65
2022-12-25T17:07:38.826Z,19.65
2022-12-25T17:10:08.251Z,19.39
2022-12-25T17:12:35.464Z,17.63
2022-12-25T17:15:04.702Z,16.27
2022-12-25T17:17:33.148Z,14.69
2022-12-25T17:19:59.997Z,13.21
2022-12-25T17:22:27.626Z,11.48
2022-12-25T17:24:57.806Z,12.12
2022-12-25T17:39:13.327Z,10.88
2022-12-25T17:41:43.817Z,10.76
2022-12-25T17:44:15.489Z,12.55
2022-12-25T17:46:43.036Z,10.97
2022-12-25T17:49:13.089Z,10.67
2022-12-25T17:51:47.694Z,11.04
2022-12-25T17:54:20.115Z,10.71
2022-12-25T17:56:49.087Z,12.19
2022-12-25T17:59:17.882Z,11.26
2022-12-25T18:01:44.671Z,11.51
2022-12-25T18:04:14.654Z,11.07
2022-12-25T18:06:41.293Z,11.36
2022-12-25T18:09:08.172Z,10.12
2022-12-25T18:11:36.768Z,11.65
2022-12-25T18:14:05.491Z,11.20
2022-12-25T18:16:32.396Z,14.52
2022-12-25T18:18:59.138Z,16.60
2022-12-25T18:21:26.648Z,15.14
2022-12-25T18:23:53.390Z,15.13
2022-12-25T18:26:20.142Z,13.54
2022-12-25T18:28:46.755Z,14.09
2022-12-25T18:31:13.677Z,11.94
2022-12-25T18:33:41.247Z,11.03
2022-12-25T18:36:14.230Z,10.63
2022-12-25T18:38:59.723Z,10.93
2022-12-25T18:41:45.090Z,11.03
2022-12-25T18:44:19.794Z,12.40
2022-12-25T18:46:47.351Z,12.04
2022-12-25T18:49:14.225Z,11.37
2022-12-25T18:51:41.138Z,10.71
2022-12-25T18:54:09.393Z,11.93
2022-12-25T18:56:37.228Z,11.69
2022-12-25T18:59:04.433Z,12.07
2022-12-25T19:01:31.068Z,12.05
2022-12-25T19:04:04.322Z,12.85
2022-12-25T19:06:32.329Z,14.56
2022-12-25T19:08:59.009Z,13.13
2022-12-25T19:11:25.859Z,12.95
2022-12-25T19:13:54.098Z,12.34
2022-12-25T19:19:20.170Z,11.78
2022-12-25T19:21:49.530Z,11.67
2022-12-25T19:24:18.204Z,12.04
2022-12-25T19:29:26.085Z,12.29
2022-12-25T19:31:52.627Z,12.08
2022-12-25T19:34:21.384Z,12.56
2022-12-25T19:36:50.317Z,11.48
2022-12-25T19:42:11.026Z,12.49
2022-12-25T19:45:02.314Z,12.21
2022-12-25T19:47:31.403Z,12.97
2022-12-25T19:55:35.698Z,12.36
2022-12-25T19:58:04.917Z,12.74
2022-12-25T20:00:31.612Z,13.03
2022-12-25T20:02:58.992Z,12.72
2022-12-25T20:05:25.708Z,12.39
2022-12-25T20:08:05.436Z,11.99
2022-12-25T20:13:45.160Z,12.01
2022-12-25T20:16:11.947Z,22.47
2022-12-25T20:18:38.514Z,109.39
2022-12-25T20:21:05.159Z,71.64
2022-12-25T20:32:15.752Z,11.14
2022-12-25T20:34:44.500Z,11.14
2022-12-25T20:37:11.840Z,11.03
2022-12-25T20:39:40.892Z,10.82
2022-12-25T20:54:30.351Z,14.02
2022-12-25T20:57:07.321Z,13.68
2022-12-25T20:59:37.576Z,12.49
2022-12-25T21:02:05.104Z,12.10
2022-12-25T21:04:34.844Z,12.07
2022-12-25T21:07:06.888Z,11.89
2022-12-25T21:09:34.731Z,11.21
2022-12-25T21:12:07.690Z,11.14
2022-12-25T21:14:37.381Z,11.28
2022-12-25T21:17:06.952Z,11.63
2022-12-25T21:19:34.628Z,12.64
2022-12-25T21:22:01.185Z,12.69
2022-12-25T21:24:32.128Z,10.67
2022-12-25T21:27:01.633Z,11.30
2022-12-25T21:29:28.445Z,10.67
2022-12-25T21:32:16.640Z,11.09
2022-12-25T21:34:49.251Z,11.82
2022-12-25T21:37:29.277Z,11.61
2022-12-25T21:39:56.143Z,11.70
2022-12-25T21:42:23.218Z,11.89
2022-12-25T21:44:49.979Z,11.59
2022-12-25T21:47:16.740Z,11.67
2022-12-25T21:49:43.557Z,11.20
2022-12-25T21:52:10.377Z,12.18
2022-12-25T22:07:49.513Z,10.68
2022-12-25T22:10:17.262Z,11.22
2022-12-25T22:12:45.675Z,10.55
2022-12-25T22:15:12.939Z,12.30
2022-12-25T22:17:42.280Z,14.19
2022-12-25T22:20:08.908Z,11.91
2022-12-25T22:22:36.399Z,11.72
2022-12-25T22:27:54.249Z,10.51
2022-12-25T22:30:24.938Z,10.83
2022-12-25T22:32:56.462Z,11.24
2022-12-25T22:35:23.106Z,11.48
2022-12-25T22:40:34.711Z,11.20
2022-12-25T22:43:01.539Z,11.13
2022-12-25T22:45:28.276Z,11.07
2022-12-25T22:47:54.985Z,11.12
2022-12-25T22:50:26.075Z,10.96
2022-12-25T22:52:54.557Z,10.85
2022-12-25T22:55:21.663Z,10.59
2022-12-25T22:57:48.554Z,10.63
2022-12-25T23:00:15.137Z,11.02
2022-12-25T23:02:42.154Z,10.67
2022-12-25T23:05:09.280Z,11.07
2022-12-25T23:07:35.932Z,11.45
2022-12-25T23:10:02.669Z,11.57
2022-12-25T23:12:29.199Z,11.41
2022-12-25T23:14:55.892Z,11.45
2022-12-25T23:17:22.541Z,11.16
2022-12-25T23:19:58.835Z,11.45
2022-12-25T23:22:31.420Z,11.60
2022-12-25T23:24:58.022Z,11.74
2022-12-25T23:27:24.582Z,11.69
2022-12-25T23:29:51.416Z,11.47
2022-12-25T23:32:17.936Z,11.37
2022-12-25T23:34:44.872Z,11.64
2022-12-25T23:37:11.728Z,11.41
2022-12-25T23:39:40.806Z,11.74
2022-12-25T23:42:07.341Z,11.65
2022-12-25T23:44:33.983Z,11.19
2022-12-25T23:47:03.061Z,11.17
2022-12-25T23:49:29.663Z,11.70
2022-12-25T23:51:57.056Z,11.48
2022-12-25T23:54:23.597Z,11.22
2022-12-25T23:56:50.154Z,10.73
2022-12-25T23:59:16.645Z,10.19
